Al Rekayyat — V7QF3 — position and weather

sailwx.info

Track history (hours):
 
Tides and Currents Weather Stations Pressure Air Temp Water Temp Dewpoint Dewpoint Depression Visibility Wind Speed Wind Dir Waves Ship Positions

Al Rekayyat

Last reported at 2018-Feb-17 06:53 UTC. Time now 2018-Feb-22 09:26 UTC.
Position N 25°03' E 123°40'.

Length 315 m; draft 12.2 m.

Type: Ship (hazmat cat D). MMSI: 538003347.

Date/timePositionNaut miles runAvg speedWind from/ knotsBaromVisibWave heightAir tempDewpointWater temp
2018-Feb-17 06:53N 25°03' E 123°40'717.6
2018-Feb-17 06:30N 24°56' E 123°37'917.7
2018-Feb-17 06:00N 24°49' E 123°33'917.6
2018-Feb-17 05:30N 24°41' E 123°28'917.5
2018-Feb-17 05:00N 24°33' E 123°24'917.9
2018-Feb-17 04:31N 24°25' E 123°20'917.6
2018-Feb-17 04:00N 24°16' E 123°17'917.5
2018-Feb-17 03:30N 24°08' E 123°14'917.7
2018-Feb-17 03:01N 23°60' E 123°11'917.6
2018-Feb-17 02:30N 23°51' E 123°08'917.6
2018-Feb-17 02:01N 23°43' E 123°05'917.8
2018-Feb-17 01:31N 23°34' E 123°02'  
2018-Feb-12 18:40N 01°15' E 104°03'315.0
2018-Feb-12 18:29N 01°15' E 104°01'714.2
2018-Feb-12 18:00N 01°13' E 103°54'714.5
2018-Feb-12 17:30N 01°10' E 103°47'714.5
2018-Feb-12 17:00N 01°05' E 103°42'713.3
2018-Feb-12 16:30N 01°05' E 103°36'815.8
2018-Feb-12 15:59N 01°09' E 103°28'  
Track history (hours):
 
Tides and Currents Weather Stations Pressure Air Temp Water Temp Dewpoint Dewpoint Depression Visibility Wind Speed Wind Dir Waves Ship Positions

Al Rekayyat

Last reported at 2018-Feb-17 06:53 UTC. Time now 2018-Feb-22 09:26 UTC.
Position N 25°03' E 123°40'.

Length 315 m; draft 12.2 m.

Type: Ship (hazmat cat D). MMSI: 538003347.

Date/timePositionNaut miles runAvg speedWind from/ knotsBaromVisibWave heightAir tempDewpointWater temp
2018-Feb-17 06:53N 25°03' E 123°40'717.6
2018-Feb-17 06:30N 24°56' E 123°37'917.7
2018-Feb-17 06:00N 24°49' E 123°33'917.6
2018-Feb-17 05:30N 24°41' E 123°28'917.5
2018-Feb-17 05:00N 24°33' E 123°24'917.9
2018-Feb-17 04:31N 24°25' E 123°20'917.6
2018-Feb-17 04:00N 24°16' E 123°17'917.5
2018-Feb-17 03:30N 24°08' E 123°14'917.7
2018-Feb-17 03:01N 23°60' E 123°11'917.6
2018-Feb-17 02:30N 23°51' E 123°08'917.6
2018-Feb-17 02:01N 23°43' E 123°05'917.8
2018-Feb-17 01:31N 23°34' E 123°02'  
2018-Feb-12 18:40N 01°15' E 104°03'315.0
2018-Feb-12 18:29N 01°15' E 104°01'714.2
2018-Feb-12 18:00N 01°13' E 103°54'714.5
2018-Feb-12 17:30N 01°10' E 103°47'714.5
2018-Feb-12 17:00N 01°05' E 103°42'713.3
2018-Feb-12 16:30N 01°05' E 103°36'815.8
2018-Feb-12 15:59N 01°09' E 103°28'  

Dump ship's entire track history